Time;durP1;ratioP1;P1;durP2;ratioP2;P2;SDS_P1;SDS_P2;PMS_P1;PMS_P2;Temp;Humidity;BMP_temperature;BMP_pressure;BME280_temperature;BME280_humidity;BME280_pressure;Samples;Min_cycle;Max_cycle;Signal;HPM_P1;HPM_P2
2022/06/25 00:00:17;;;;;;;7.97;5.50;;;;;;;;;;6284409;28;20143;-62
2022/06/25 00:03:37;;;;;;;9.18;5.07;;;;;;;;;;6286067;28;20055;-62
2022/06/25 00:06:38;;;;;;;8.18;5.45;;;;;;;;;;6286288;28;20517;-61
2022/06/25 00:09:38;;;;;;;11.77;5.90;;;;;;;;;;6292153;28;20075;-62
2022/06/25 00:12:39;;;;;;;7.40;5.00;;;;;;;;;;6293487;28;20040;-63
2022/06/25 00:15:40;;;;;;;10.03;6.20;;;;;;;;;;6289490;28;20040;-62
2022/06/25 00:18:40;;;;;;;9.30;5.80;;;;;;;;;;6279923;28;20094;-62
2022/06/25 00:21:41;;;;;;;10.33;5.60;;;;;;;;;;6292447;28;20036;-62
2022/06/25 00:24:41;;;;;;;10.20;5.67;;;;;;;;;;6283347;28;20177;-62
2022/06/25 00:27:42;;;;;;;10.00;6.13;;;;;;;;;;6283741;28;20496;-63
2022/06/25 00:30:43;;;;;;;8.23;5.73;;;;;;;;;;6281980;28;20523;-62
2022/06/25 00:33:43;;;;;;;7.87;5.83;;;;;;;;;;6288157;28;20139;-63
2022/06/25 00:36:44;;;;;;;8.20;5.97;;;;;;;;;;6280489;28;20049;-62
2022/06/25 00:39:44;;;;;;;8.47;5.83;;;;;;;;;;6290786;28;20059;-63
2022/06/25 00:42:47;;;;;;;9.10;5.93;;;;;;;;;;6288472;28;20386;-62
2022/06/25 00:45:48;;;;;;;13.27;6.03;;;;;;;;;;6277339;28;20478;-62
2022/06/25 00:48:48;;;;;;;7.50;5.80;;;;;;;;;;6283828;28;20040;-62
2022/06/25 00:51:51;;;;;;;13.40;6.23;;;;;;;;;;6290527;28;20041;-62
2022/06/25 00:54:58;;;;;;;10.35;5.55;;;;;;;;;;6289259;28;20036;-63
2022/06/25 00:58:00;;;;;;;9.18;6.00;;;;;;;;;;6287713;28;20064;-62
2022/06/25 01:01:03;;;;;;;9.02;6.05;;;;;;;;;;6289539;28;20070;-63
2022/06/25 01:04:04;;;;;;;11.27;6.43;;;;;;;;;;6290105;28;20500;-62
2022/06/25 01:07:06;;;;;;;7.33;5.40;;;;;;;;;;6291943;28;20131;-62
2022/06/25 01:10:07;;;;;;;10.93;5.50;;;;;;;;;;6283928;28;20037;-62
2022/06/25 01:13:07;;;;;;;8.75;6.03;;;;;;;;;;6285735;28;20040;-62
2022/06/25 01:16:08;;;;;;;10.17;6.07;;;;;;;;;;6288123;28;20052;-63
2022/06/25 01:19:10;;;;;;;9.87;6.07;;;;;;;;;;6282256;28;20178;-62
2022/06/25 01:22:11;;;;;;;10.50;6.03;;;;;;;;;;6281788;28;20068;-63
2022/06/25 01:25:12;;;;;;;12.17;5.90;;;;;;;;;;6287722;28;20056;-63
2022/06/25 01:28:13;;;;;;;13.93;6.22;;;;;;;;;;6287650;28;20318;-62
2022/06/25 01:31:14;;;;;;;10.20;6.30;;;;;;;;;;6286301;28;20041;-62
2022/06/25 01:34:14;;;;;;;10.53;5.53;;;;;;;;;;6283666;28;20137;-62
2022/06/25 01:37:15;;;;;;;9.43;6.30;;;;;;;;;;6283802;28;20047;-62
2022/06/25 01:40:16;;;;;;;9.53;6.20;;;;;;;;;;6283414;28;20715;-62
2022/06/25 01:43:16;;;;;;;9.23;6.03;;;;;;;;;;6284182;28;20179;-62
2022/06/25 01:46:17;;;;;;;10.40;6.43;;;;;;;;;;6287191;28;20143;-62
2022/06/25 01:49:17;;;;;;;10.87;6.13;;;;;;;;;;6281801;28;20067;-62
2022/06/25 01:52:18;;;;;;;9.33;6.10;;;;;;;;;;6287085;28;20064;-62
2022/06/25 01:55:20;;;;;;;9.37;5.93;;;;;;;;;;6288107;28;20041;-62
2022/06/25 01:58:20;;;;;;;;;;;;;;;;;;6282552;28;20052;-62
2022/06/25 02:01:21;;;;;;;10.98;6.05;;;;;;;;;;6296164;28;20505;-62
2022/06/25 02:04:21;;;;;;;10.40;6.23;;;;;;;;;;6290311;28;20506;-62
2022/06/25 02:07:22;;;;;;;8.70;5.90;;;;;;;;;;6291996;28;20412;-62
2022/06/25 02:10:22;;;;;;;12.27;6.87;;;;;;;;;;6287438;28;20065;-62
2022/06/25 02:13:23;;;;;;;10.90;6.97;;;;;;;;;;6287998;28;20058;-61
2022/06/25 02:16:24;;;;;;;10.98;6.85;;;;;;;;;;6294457;28;20041;-63
2022/06/25 02:19:24;;;;;;;9.90;6.50;;;;;;;;;;6290969;28;20044;-62
2022/06/25 02:22:26;;;;;;;9.77;6.50;;;;;;;;;;6292744;28;20074;-63
2022/06/25 02:25:27;;;;;;;9.18;6.18;;;;;;;;;;6293096;28;20048;-62
2022/06/25 02:28:28;;;;;;;9.40;6.33;;;;;;;;;;6291841;28;20936;-62
2022/06/25 02:31:28;;;;;;;8.80;6.53;;;;;;;;;;6295771;28;20144;-62
2022/06/25 02:34:29;;;;;;;10.13;6.60;;;;;;;;;;6292358;28;20052;-63
2022/06/25 02:37:29;;;;;;;12.57;7.03;;;;;;;;;;6288495;28;20140;-63
2022/06/25 02:40:30;;;;;;;11.23;6.80;;;;;;;;;;6289918;28;20637;-63
2022/06/25 02:43:31;;;;;;;11.30;6.83;;;;;;;;;;6287008;28;20475;-62
2022/06/25 02:46:32;;;;;;;10.70;6.60;;;;;;;;;;6296726;28;20052;-63
2022/06/25 02:49:32;;;;;;;8.17;6.20;;;;;;;;;;6292230;28;20538;-62
2022/06/25 02:52:33;;;;;;;9.67;6.53;;;;;;;;;;6292680;28;20033;-62
2022/06/25 02:58:56;;;;;;;13.07;7.63;;;;;;;;;;6292919;28;20131;-63
2022/06/25 03:01:57;;;;;;;11.45;6.80;;;;;;;;;;6288609;28;20038;-63
2022/06/25 03:04:57;;;;;;;9.83;7.20;;;;;;;;;;6288756;28;20048;-62
2022/06/25 03:07:58;;;;;;;11.93;7.13;;;;;;;;;;6290851;28;20047;-63
2022/06/25 03:10:59;;;;;;;12.30;6.57;;;;;;;;;;6286076;28;20048;-63
2022/06/25 03:13:59;;;;;;;9.10;6.37;;;;;;;;;;6294487;28;20052;-63
2022/06/25 03:17:00;;;;;;;13.40;7.13;;;;;;;;;;6291254;28;20036;-62
2022/06/25 03:20:00;;;;;;;9.03;6.07;;;;;;;;;;6287303;28;20414;-63
2022/06/25 03:23:01;;;;;;;11.47;6.17;;;;;;;;;;6283967;28;20048;-63
2022/06/25 03:26:01;;;;;;;11.90;6.40;;;;;;;;;;6288973;28;20045;-63
2022/06/25 03:29:03;;;;;;;10.27;6.90;;;;;;;;;;6295656;28;20066;-62
2022/06/25 03:32:04;;;;;;;10.57;6.87;;;;;;;;;;6289280;28;20132;-62
2022/06/25 03:35:05;;;;;;;14.37;10.10;;;;;;;;;;6289072;28;20136;-62
2022/06/25 03:38:06;;;;;;;8.82;6.47;;;;;;;;;;6281622;28;20471;-63
2022/06/25 03:44:25;;;;;;;8.45;6.18;;;;;;;;;;6288224;28;20028;-63
2022/06/25 03:47:26;;;;;;;9.93;6.00;;;;;;;;;;6294331;28;20456;-64
2022/06/25 03:50:27;;;;;;;8.67;6.40;;;;;;;;;;6293181;28;20068;-64
2022/06/25 03:53:27;;;;;;;8.47;6.40;;;;;;;;;;6288167;28;20101;-63
2022/06/25 03:56:28;;;;;;;9.43;5.77;;;;;;;;;;6287632;28;20037;-64
2022/06/25 03:59:29;;;;;;;9.97;6.30;;;;;;;;;;6294562;28;20052;-63
2022/06/25 04:02:29;;;;;;;10.20;6.30;;;;;;;;;;6289124;28;20054;-62
2022/06/25 04:05:30;;;;;;;11.17;6.57;;;;;;;;;;6292540;28;20561;-62
2022/06/25 04:08:31;;;;;;;10.87;6.60;;;;;;;;;;6284284;28;20264;-62
2022/06/25 04:11:32;;;;;;;9.00;6.30;;;;;;;;;;6287038;28;20464;-62
2022/06/25 04:14:32;;;;;;;9.57;6.37;;;;;;;;;;6290969;28;20086;-62
2022/06/25 04:17:33;;;;;;;9.17;6.67;;;;;;;;;;6282063;28;20509;-62
2022/06/25 04:20:34;;;;;;;8.67;6.43;;;;;;;;;;6291225;28;20521;-62
2022/06/25 04:23:35;;;;;;;8.77;6.50;;;;;;;;;;6284670;28;20467;-62
2022/06/25 04:26:38;;;;;;;10.13;6.70;;;;;;;;;;6286163;28;20050;-62
2022/06/25 04:29:39;;;;;;;8.32;6.53;;;;;;;;;;6287438;28;20968;-62
2022/06/25 04:32:39;;;;;;;11.00;6.93;;;;;;;;;;6286950;28;20138;-62
2022/06/25 04:35:40;;;;;;;12.50;6.90;;;;;;;;;;6286742;28;21073;-62
2022/06/25 04:38:41;;;;;;;10.70;6.50;;;;;;;;;;6289652;28;20147;-63
2022/06/25 04:41:41;;;;;;;9.30;6.77;;;;;;;;;;6291532;28;20828;-63
2022/06/25 04:44:42;;;;;;;9.97;6.87;;;;;;;;;;6281609;28;20158;-63
2022/06/25 04:47:43;;;;;;;9.17;6.70;;;;;;;;;;6286469;28;20090;-63
2022/06/25 04:50:44;;;;;;;9.60;6.30;;;;;;;;;;6283784;28;20579;-65
2022/06/25 04:53:56;;;;;;;9.05;6.78;;;;;;;;;;6284397;28;20052;-63
2022/06/25 04:56:56;;;;;;;16.35;10.63;;;;;;;;;;6283735;28;20045;-63
2022/06/25 04:59:57;;;;;;;13.47;9.60;;;;;;;;;;6306194;28;20092;-63
2022/06/25 05:02:58;;;;;;;20.50;10.83;;;;;;;;;;6300162;28;20586;-63
2022/06/25 05:05:59;;;;;;;25.07;16.00;;;;;;;;;;6296863;28;20071;-63
2022/06/25 05:08:59;;;;;;;23.37;15.30;;;;;;;;;;6276683;28;20227;-63
2022/06/25 05:12:00;;;;;;;24.50;14.93;;;;;;;;;;6287248;28;20082;-63
2022/06/25 05:15:03;;;;;;;19.40;11.57;;;;;;;;;;6291129;28;20122;-62
2022/06/25 05:18:10;;;;;;;17.80;9.60;;;;;;;;;;6307024;28;20051;-62
2022/06/25 05:21:10;;;;;;;13.98;8.88;;;;;;;;;;6305112;28;20528;-63
2022/06/25 05:24:11;;;;;;;10.83;8.10;;;;;;;;;;6278724;28;20033;-61
2022/06/25 05:27:12;;;;;;;13.50;8.33;;;;;;;;;;6289102;28;20554;-61
2022/06/25 05:30:12;;;;;;;16.13;9.57;;;;;;;;;;6287097;28;20041;-65
2022/06/25 05:33:13;;;;;;;15.57;10.00;;;;;;;;;;6289618;28;20080;-62
2022/06/25 05:36:13;;;;;;;10.97;7.70;;;;;;;;;;6292340;28;20049;-62
2022/06/25 05:39:14;;;;;;;10.57;6.87;;;;;;;;;;6305606;28;20054;-67
2022/06/25 05:42:15;;;;;;;14.50;8.03;;;;;;;;;;6305822;28;20040;-59
2022/06/25 05:45:16;;;;;;;10.57;7.40;;;;;;;;;;6307138;28;20461;-62
2022/06/25 05:48:17;;;;;;;11.63;7.17;;;;;;;;;;6294622;28;20127;-63
2022/06/25 05:51:17;;;;;;;8.30;6.57;;;;;;;;;;6283164;28;20135;-67
2022/06/25 05:54:18;;;;;;;10.13;6.93;;;;;;;;;;6288625;28;20079;-63
2022/06/25 05:57:19;;;;;;;11.23;6.47;;;;;;;;;;6296180;28;20055;-65
2022/06/25 06:00:20;;;;;;;10.38;6.25;;;;;;;;;;6292809;28;20109;-69
2022/06/25 06:03:20;;;;;;;14.90;7.00;;;;;;;;;;6286693;28;20139;-61
2022/06/25 06:06:21;;;;;;;10.47;7.23;;;;;;;;;;6273550;28;20045;-64
2022/06/25 06:09:22;;;;;;;11.37;6.57;;;;;;;;;;6286860;28;20555;-64
2022/06/25 06:12:22;;;;;;;11.10;5.90;;;;;;;;;;6283690;28;20545;-65
2022/06/25 06:15:23;;;;;;;10.03;6.40;;;;;;;;;;6286848;28;20417;-62
2022/06/25 06:18:23;;;;;;;12.20;6.47;;;;;;;;;;6279943;28;20052;-63
2022/06/25 06:21:24;;;;;;;13.83;6.57;;;;;;;;;;6286983;28;20052;-62
2022/06/25 06:24:25;;;;;;;11.37;6.17;;;;;;;;;;6296685;28;21175;-62
2022/06/25 06:27:25;;;;;;;8.30;5.97;;;;;;;;;;6307844;28;20045;-63
2022/06/25 06:30:26;;;;;;;10.20;6.50;;;;;;;;;;6305737;28;20051;-65
2022/06/25 06:33:26;;;;;;;9.80;6.43;;;;;;;;;;6306287;28;20036;-65
2022/06/25 06:36:27;;;;;;;9.80;6.20;;;;;;;;;;6303824;28;20058;-64
2022/06/25 06:39:28;;;;;;;8.97;6.40;;;;;;;;;;6296665;28;20048;-64
2022/06/25 06:42:29;;;;;;;9.37;6.20;;;;;;;;;;6295032;28;20479;-64
2022/06/25 06:45:29;;;;;;;10.57;6.00;;;;;;;;;;6308057;28;20046;-64
2022/06/25 06:48:30;;;;;;;11.10;6.37;;;;;;;;;;6310804;28;20044;-64
2022/06/25 06:51:30;;;;;;;11.17;6.00;;;;;;;;;;6310792;28;20048;-64
2022/06/25 06:54:31;;;;;;;8.53;5.53;;;;;;;;;;6300485;28;20041;-64
2022/06/25 06:57:33;;;;;;;11.80;6.27;;;;;;;;;;6287868;28;20128;-65
2022/06/25 07:00:34;;;;;;;8.75;6.00;;;;;;;;;;6287873;28;20044;-64
2022/06/25 07:03:34;;;;;;;7.97;5.70;;;;;;;;;;6304576;28;20484;-63
2022/06/25 07:06:35;;;;;;;8.30;5.70;;;;;;;;;;6302808;28;20143;-62
2022/06/25 07:09:35;;;;;;;10.27;5.60;;;;;;;;;;6296683;28;20083;-63
2022/06/25 07:12:36;;;;;;;7.50;5.23;;;;;;;;;;6300550;28;20053;-63
2022/06/25 07:15:36;;;;;;;9.93;5.97;;;;;;;;;;6304079;28;20399;-63
2022/06/25 07:18:37;;;;;;;8.00;5.20;;;;;;;;;;6306441;28;20060;-62
2022/06/25 07:21:38;;;;;;;8.43;4.87;;;;;;;;;;6308243;28;20071;-63
2022/06/25 07:24:38;;;;;;;9.17;5.10;;;;;;;;;;6308996;28;20090;-62
2022/06/25 07:27:39;;;;;;;9.13;4.83;;;;;;;;;;6304877;28;20055;-63
2022/06/25 07:30:40;;;;;;;7.78;4.53;;;;;;;;;;6309438;28;20548;-62
2022/06/25 07:33:40;;;;;;;7.07;4.17;;;;;;;;;;6305463;28;20044;-62
2022/06/25 07:36:41;;;;;;;7.50;4.43;;;;;;;;;;6299372;28;20041;-63
2022/06/25 07:39:42;;;;;;;8.33;4.40;;;;;;;;;;6291508;28;20411;-63
2022/06/25 07:42:43;;;;;;;6.50;4.80;;;;;;;;;;6276530;28;20099;-64
2022/06/25 07:45:43;;;;;;;6.93;4.67;;;;;;;;;;6279236;28;20036;-63
2022/06/25 07:48:44;;;;;;;5.93;4.60;;;;;;;;;;6280151;28;20045;-63
2022/06/25 07:51:56;;;;;;;10.43;4.70;;;;;;;;;;6283236;28;20534;-63
2022/06/25 07:54:57;;;;;;;7.53;4.72;;;;;;;;;;6291721;28;20052;-64
2022/06/25 07:57:57;;;;;;;7.03;4.53;;;;;;;;;;6284099;28;20049;-64
2022/06/25 08:00:58;;;;;;;7.03;4.70;;;;;;;;;;6285028;28;20048;-64
2022/06/25 08:03:59;;;;;;;6.00;4.43;;;;;;;;;;6296836;28;20080;-62
2022/06/25 08:06:59;;;;;;;6.15;4.05;;;;;;;;;;6297046;28;20114;-63
2022/06/25 08:10:00;;;;;;;7.97;4.10;;;;;;;;;;6301529;28;20036;-62
2022/06/25 08:13:02;;;;;;;6.30;4.30;;;;;;;;;;6281812;28;20052;-65
2022/06/25 08:16:04;;;;;;;9.05;4.00;;;;;;;;;;6268922;28;20075;-64
2022/06/25 08:19:05;;;;;;;5.60;4.03;;;;;;;;;;6268118;28;20176;-64
2022/06/25 08:22:05;;;;;;;6.07;4.40;;;;;;;;;;6265100;28;20040;-66
2022/06/25 08:25:09;;;;;;;5.87;3.97;;;;;;;;;;6268433;28;20063;-63
2022/06/25 08:28:09;;;;;;;6.60;4.25;;;;;;;;;;6271229;28;20045;-66
2022/06/25 08:31:10;;;;;;;6.10;4.38;;;;;;;;;;6271076;28;20719;-64
2022/06/25 08:34:11;;;;;;;5.67;4.10;;;;;;;;;;6268005;28;20045;-74
2022/06/25 08:37:11;;;;;;;4.77;3.77;;;;;;;;;;6274354;28;20040;-65
2022/06/25 08:40:13;;;;;;;5.27;3.73;;;;;;;;;;6272106;28;20496;-64
2022/06/25 08:43:14;;;;;;;7.43;3.90;;;;;;;;;;6267600;28;20083;-66
2022/06/25 08:46:15;;;;;;;5.87;4.07;;;;;;;;;;6272137;28;20068;-64
2022/06/25 08:49:18;;;;;;;7.03;4.05;;;;;;;;;;6266994;28;20416;-65
2022/06/25 08:52:22;;;;;;;7.13;4.10;;;;;;;;;;6261308;28;20403;-66
2022/06/25 08:55:33;;;;;;;5.38;4.13;;;;;;;;;;6269292;28;20049;-67
2022/06/25 08:58:34;;;;;;;7.30;4.32;;;;;;;;;;6265540;28;20048;-65
2022/06/25 09:01:35;;;;;;;5.57;3.90;;;;;;;;;;6264999;28;20047;-65
2022/06/25 09:04:36;;;;;;;7.50;4.30;;;;;;;;;;6265468;28;20053;-66
2022/06/25 09:07:36;;;;;;;7.70;4.47;;;;;;;;;;6271324;28;20114;-64
2022/06/25 09:10:38;;;;;;;6.10;3.90;;;;;;;;;;6263100;28;20045;-69
2022/06/25 09:13:38;;;;;;;5.35;4.00;;;;;;;;;;6262407;28;20079;-64
2022/06/25 09:16:39;;;;;;;6.17;4.20;;;;;;;;;;6263646;28;20682;-68
2022/06/25 09:19:49;;;;;;;6.85;4.10;;;;;;;;;;6265914;28;20045;-66
2022/06/25 09:22:57;;;;;;;6.95;4.13;;;;;;;;;;6269693;28;20472;-68
2022/06/25 09:26:10;;;;;;;6.78;4.07;;;;;;;;;;6265978;28;20040;-70
2022/06/25 09:29:10;;;;;;;7.65;4.50;;;;;;;;;;6270706;28;20057;-67
2022/06/25 09:32:13;;;;;;;7.57;4.60;;;;;;;;;;6265178;28;20071;-65
2022/06/25 09:35:37;;;;;;;6.15;4.15;;;;;;;;;;6266096;28;20044;-66
2022/06/25 09:38:49;;;;;;;7.70;3.92;;;;;;;;;;6266925;28;20060;-65
2022/06/25 09:41:53;;;;;;;8.57;4.97;;;;;;;;;;6265438;28;20053;-66
2022/06/25 09:45:05;;;;;;;7.38;4.50;;;;;;;;;;6268516;28;20541;-65
2022/06/25 09:48:10;;;;;;;10.55;4.95;;;;;;;;;;6263109;28;20132;-65
2022/06/25 09:51:11;;;;;;;7.38;4.50;;;;;;;;;;6266870;28;20068;-64
2022/06/25 09:54:12;;;;;;;8.05;5.07;;;;;;;;;;6265778;28;20060;-64
2022/06/25 09:57:13;;;;;;;8.60;5.83;;;;;;;;;;6263623;28;20143;-69
2022/06/25 10:00:14;;;;;;;7.50;5.23;;;;;;;;;;6262345;28;20064;-63
2022/06/25 10:03:15;;;;;;;7.55;5.15;;;;;;;;;;6266837;28;20752;-62
2022/06/25 10:06:18;;;;;;;7.00;5.03;;;;;;;;;;6271713;28;20055;-64
2022/06/25 10:09:20;;;;;;;8.77;5.20;;;;;;;;;;6268606;28;20171;-63
2022/06/25 10:12:21;;;;;;;8.15;4.90;;;;;;;;;;6266057;28;20132;-64
2022/06/25 10:15:23;;;;;;;8.10;4.90;;;;;;;;;;6266262;28;20430;-64
2022/06/25 10:18:25;;;;;;;7.13;4.63;;;;;;;;;;6266747;28;20664;-65
2022/06/25 10:21:25;;;;;;;;;;;;;;;;;;6267202;28;20084;-63
2022/06/25 10:24:27;;;;;;;7.40;4.80;;;;;;;;;;6274639;28;20339;-63
2022/06/25 10:27:28;;;;;;;7.38;4.93;;;;;;;;;;6272194;28;20499;-63
2022/06/25 10:30:51;;;;;;;7.00;4.73;;;;;;;;;;6270465;28;20045;-63
2022/06/25 10:34:02;;;;;;;8.45;5.32;;;;;;;;;;6270921;28;20064;-64
2022/06/25 10:37:03;;;;;;;7.10;4.97;;;;;;;;;;6274421;28;20055;-64
2022/06/25 10:40:08;;;;;;;9.38;4.70;;;;;;;;;;6270553;28;20067;-64
2022/06/25 10:43:35;;;;;;;6.63;4.65;;;;;;;;;;6268655;28;20241;-64
2022/06/25 10:46:37;;;;;;;5.32;3.40;;;;;;;;;;6271625;28;20069;-65
2022/06/25 10:49:37;;;;;;;4.50;3.28;;;;;;;;;;6274170;28;20072;-65
2022/06/25 10:52:38;;;;;;;8.25;3.67;;;;;;;;;;6267926;28;20059;-65
2022/06/25 10:55:47;;;;;;;6.60;3.57;;;;;;;;;;6267746;28;20521;-64
2022/06/25 10:58:50;;;;;;;4.32;3.20;;;;;;;;;;6271637;28;20053;-65
2022/06/25 11:01:57;;;;;;;5.82;3.15;;;;;;;;;;6269065;28;20496;-67
2022/06/25 11:04:58;;;;;;;4.93;3.25;;;;;;;;;;6267477;28;20056;-64
2022/06/25 11:07:58;;;;;;;5.30;3.60;;;;;;;;;;6268528;28;20844;-64
2022/06/25 11:10:59;;;;;;;5.68;3.50;;;;;;;;;;6276157;28;20045;-63
2022/06/25 11:14:03;;;;;;;6.57;3.40;;;;;;;;;;6276178;28;20452;-65
2022/06/25 11:17:08;;;;;;;5.68;3.50;;;;;;;;;;6275224;28;20133;-63
2022/06/25 11:20:12;;;;;;;4.80;3.40;;;;;;;;;;6277477;28;20421;-63
2022/06/25 11:23:14;;;;;;;5.60;3.60;;;;;;;;;;6273505;28;20613;-62
2022/06/25 11:30:02;;;;;;;4.18;3.17;;;;;;;;;;6265151;28;20135;-66
2022/06/25 11:33:03;;;;;;;5.75;3.25;;;;;;;;;;6265093;28;20044;-63
2022/06/25 11:36:10;;;;;;;4.10;3.05;;;;;;;;;;6273291;28;20040;-64
2022/06/25 11:39:15;;;;;;;4.53;3.15;;;;;;;;;;6272823;28;20411;-65
2022/06/25 11:42:16;;;;;;;4.60;3.35;;;;;;;;;;6266302;28;20057;-63
2022/06/25 11:45:16;;;;;;;4.75;3.33;;;;;;;;;;6274407;28;20507;-63
2022/06/25 11:48:18;;;;;;;5.03;3.10;;;;;;;;;;6267984;28;20055;-63
2022/06/25 11:51:24;;;;;;;5.18;3.30;;;;;;;;;;6267775;28;20041;-65
2022/06/25 11:54:24;;;;;;;5.60;2.97;;;;;;;;;;6266041;28;20075;-66
2022/06/25 11:57:27;;;;;;;6.22;3.50;;;;;;;;;;6270400;28;20040;-64
2022/06/25 12:00:29;;;;;;;6.80;3.42;;;;;;;;;;6273457;28;20135;-65
2022/06/25 12:03:31;;;;;;;5.82;3.25;;;;;;;;;;6268470;28;20055;-65
2022/06/25 12:06:34;;;;;;;5.35;3.28;;;;;;;;;;6270300;28;20049;-65
2022/06/25 12:09:34;;;;;;;5.20;3.40;;;;;;;;;;6270402;28;20048;-63
2022/06/25 12:12:40;;;;;;;5.95;3.55;;;;;;;;;;6267817;28;20132;-67
2022/06/25 12:15:41;;;;;;;5.30;3.67;;;;;;;;;;6271721;28;20083;-65
2022/06/25 12:18:43;;;;;;;5.00;3.40;;;;;;;;;;6269208;28;20121;-66
2022/06/25 12:21:44;;;;;;;5.38;3.60;;;;;;;;;;6262531;28;20455;-66
2022/06/25 12:24:46;;;;;;;8.23;3.67;;;;;;;;;;6274161;28;20079;-64
2022/06/25 12:27:48;;;;;;;4.88;3.58;;;;;;;;;;6269976;28;20510;-65
2022/06/25 12:30:49;;;;;;;6.68;3.80;;;;;;;;;;6273671;28;20040;-66
2022/06/25 12:33:54;;;;;;;5.27;3.80;;;;;;;;;;6269574;28;20632;-67
2022/06/25 12:36:56;;;;;;;5.45;3.65;;;;;;;;;;6271388;28;20072;-64
2022/06/25 12:39:57;;;;;;;8.23;3.92;;;;;;;;;;6271289;28;20061;-66
2022/06/25 12:43:01;;;;;;;5.43;3.70;;;;;;;;;;6265814;28;20083;-66
2022/06/25 12:46:08;;;;;;;6.80;4.18;;;;;;;;;;6271068;28;20087;-65
2022/06/25 12:49:11;;;;;;;9.77;4.20;;;;;;;;;;6265867;28;20146;-67
2022/06/25 12:52:13;;;;;;;5.90;3.90;;;;;;;;;;6270578;28;20466;-64
2022/06/25 12:55:19;;;;;;;5.80;3.95;;;;;;;;;;6271899;28;20053;-66
2022/06/25 12:58:21;;;;;;;6.50;4.40;;;;;;;;;;6265082;28;20459;-64
2022/06/25 13:01:23;;;;;;;4.97;4.10;;;;;;;;;;6266668;28;20180;-64
2022/06/25 13:04:23;;;;;;;6.53;4.30;;;;;;;;;;6266198;28;20059;-67
2022/06/25 13:07:24;;;;;;;7.78;4.20;;;;;;;;;;6269810;28;20501;-67
2022/06/25 13:10:25;;;;;;;5.85;4.13;;;;;;;;;;6266538;28;20041;-66
2022/06/25 13:13:26;;;;;;;5.75;3.85;;;;;;;;;;6268523;28;21499;-66
2022/06/25 13:16:26;;;;;;;5.25;3.58;;;;;;;;;;6274864;28;20162;-66
2022/06/25 13:19:29;;;;;;;6.32;4.10;;;;;;;;;;6266849;28;20049;-64
2022/06/25 13:22:30;;;;;;;5.72;3.92;;;;;;;;;;6262282;28;20063;-61
2022/06/25 13:25:31;;;;;;;6.50;4.28;;;;;;;;;;6263094;28;20080;-50
2022/06/25 13:28:32;;;;;;;6.40;4.20;;;;;;;;;;6260310;28;20504;-49
2022/06/25 13:31:32;;;;;;;7.82;4.20;;;;;;;;;;6270191;28;20045;-54
2022/06/25 13:34:33;;;;;;;6.83;5.13;;;;;;;;;;6264993;28;20051;-50
2022/06/25 13:37:36;;;;;;;7.72;4.25;;;;;;;;;;6266100;28;20049;-51
2022/06/25 13:40:36;;;;;;;6.75;3.90;;;;;;;;;;6266413;28;20081;-53
2022/06/25 13:43:37;;;;;;;6.18;3.90;;;;;;;;;;6269774;28;20131;-52
2022/06/25 13:46:39;;;;;;;5.13;3.80;;;;;;;;;;6271173;28;20078;-51
2022/06/25 13:49:40;;;;;;;4.88;3.97;;;;;;;;;;6272117;28;20919;-53
2022/06/25 13:52:40;;;;;;;6.97;4.07;;;;;;;;;;6269733;28;20048;-52
2022/06/25 13:55:41;;;;;;;5.30;3.85;;;;;;;;;;6274804;28;20110;-51
2022/06/25 13:58:42;;;;;;;8.83;4.60;;;;;;;;;;6273893;28;20570;-50
2022/06/25 14:01:42;;;;;;;7.82;4.80;;;;;;;;;;6270921;28;20089;-65
2022/06/25 14:04:43;;;;;;;5.70;4.30;;;;;;;;;;6271109;28;20057;-62
2022/06/25 14:07:44;;;;;;;8.07;4.32;;;;;;;;;;6269921;28;20048;-61
2022/06/25 14:10:44;;;;;;;6.53;4.77;;;;;;;;;;6272142;28;20053;-62
2022/06/25 14:13:45;;;;;;;6.80;4.72;;;;;;;;;;6268801;28;20152;-60
2022/06/25 14:16:45;;;;;;;7.35;4.90;;;;;;;;;;6270740;28;20139;-60
2022/06/25 14:19:46;;;;;;;7.13;4.30;;;;;;;;;;6270717;28;20052;-64
2022/06/25 14:22:47;;;;;;;9.13;4.57;;;;;;;;;;6268522;28;20407;-59
2022/06/25 14:25:48;;;;;;;5.70;4.13;;;;;;;;;;6269822;28;20068;-65
2022/06/25 14:28:48;;;;;;;6.25;4.43;;;;;;;;;;6267339;28;20051;-48
2022/06/25 14:31:49;;;;;;;7.25;4.25;;;;;;;;;;6262658;28;20053;-48
2022/06/25 14:34:49;;;;;;;9.80;5.68;;;;;;;;;;6267809;28;20044;-50
2022/06/25 14:44:30;;;;;;;6.82;4.38;;;;;;;;;;6266851;28;20557;-50
2022/06/25 14:47:31;;;;;;;10.07;4.63;;;;;;;;;;6271120;28;20041;-50
2022/06/25 14:50:32;;;;;;;10.20;4.95;;;;;;;;;;6268553;28;20048;-54
2022/06/25 14:53:32;;;;;;;;;;;;;;;;;;6266709;28;20048;-52
2022/06/25 14:56:33;;;;;;;6.17;4.60;;;;;;;;;;6267918;28;19942;-49
2022/06/25 14:59:35;;;;;;;6.35;4.47;;;;;;;;;;6266574;28;20059;-51
2022/06/25 15:02:36;;;;;;;6.10;4.60;;;;;;;;;;6267617;28;20141;-53
2022/06/25 15:05:37;;;;;;;8.10;4.60;;;;;;;;;;6271399;28;20131;-48
2022/06/25 15:08:37;;;;;;;5.75;4.30;;;;;;;;;;6267650;28;20813;-51
2022/06/25 15:11:38;;;;;;;6.87;4.80;;;;;;;;;;6273112;28;20119;-49
2022/06/25 15:14:38;;;;;;;7.07;5.28;;;;;;;;;;6276531;28;20060;-53
2022/06/25 15:17:39;;;;;;;9.63;6.97;;;;;;;;;;6272904;28;20045;-51
2022/06/25 15:20:40;;;;;;;8.13;5.85;;;;;;;;;;6275790;28;20145;-50
2022/06/25 15:23:40;;;;;;;7.60;5.00;;;;;;;;;;6269518;28;20040;-50
2022/06/25 15:26:41;;;;;;;6.97;5.00;;;;;;;;;;6274721;28;20595;-52
2022/06/25 15:29:42;;;;;;;7.80;5.07;;;;;;;;;;6273871;28;20053;-49
2022/06/25 15:32:43;;;;;;;;;;;;;;;;;;6274223;28;20037;-49
2022/06/25 15:35:43;;;;;;;6.57;4.70;;;;;;;;;;6268203;28;19979;-50
2022/06/25 15:38:44;;;;;;;6.50;4.72;;;;;;;;;;6270821;28;20052;-48
2022/06/25 15:41:44;;;;;;;;;;;;;;;;;;6270237;28;20040;-58
2022/06/25 15:44:45;;;;;;;6.05;4.45;;;;;;;;;;6268690;28;20023;-60
2022/06/25 15:47:45;;;;;;;;;;;;;;;;;;6271843;28;20059;-57
2022/06/25 15:50:46;;;;;;;5.03;4.47;;;;;;;;;;6269714;28;19974;-49
2022/06/25 15:53:47;;;;;;;;;;;;;;;;;;6270070;28;20041;-51
2022/06/25 15:56:50;;;;;;;7.57;4.50;;;;;;;;;;6271157;28;20303;-48
2022/06/25 15:59:51;;;;;;;6.50;4.65;;;;;;;;;;6266935;28;20531;-48
2022/06/25 16:02:52;;;;;;;6.25;4.45;;;;;;;;;;6269347;28;20045;-47
2022/06/25 16:05:52;;;;;;;;;;;;;;;;;;6273522;28;20058;-49
2022/06/25 16:08:53;;;;;;;8.57;5.00;;;;;;;;;;6269071;28;19919;-50
2022/06/25 16:11:54;;;;;;;5.78;4.47;;;;;;;;;;6264777;28;20041;-58
2022/06/25 16:14:55;;;;;;;7.43;4.50;;;;;;;;;;6271591;28;20048;-48
2022/06/25 16:17:56;;;;;;;;;;;;;;;;;;6267821;28;20059;-47
2022/06/25 16:20:57;;;;;;;9.80;4.60;;;;;;;;;;6267269;28;20026;-52
2022/06/25 16:23:57;;;;;;;;;;;;;;;;;;6266211;28;20061;-62
2022/06/25 16:26:58;;;;;;;9.55;4.50;;;;;;;;;;6267059;28;20830;-58
2022/06/25 16:29:59;;;;;;;9.52;4.53;;;;;;;;;;6269663;28;20033;-53
2022/06/25 16:32:59;;;;;;;5.75;4.45;;;;;;;;;;6263466;28;20045;-52
2022/06/25 16:36:00;;;;;;;6.53;4.30;;;;;;;;;;6266456;28;20411;-56
2022/06/25 16:39:01;;;;;;;;;;;;;;;;;;6268978;28;20051;-47
2022/06/25 16:42:02;;;;;;;7.22;4.45;;;;;;;;;;6263157;28;21376;-49
2022/06/25 16:45:03;;;;;;;9.15;4.72;;;;;;;;;;6267454;28;20396;-47
2022/06/25 16:48:04;;;;;;;;;;;;;;;;;;6264816;28;20059;-54
2022/06/25 16:51:06;;;;;;;6.80;4.67;;;;;;;;;;6265909;28;19934;-47
2022/06/25 16:54:07;;;;;;;6.32;4.70;;;;;;;;;;6265353;28;20049;-48
2022/06/25 16:57:08;;;;;;;7.97;4.85;;;;;;;;;;6266639;28;20809;-54
2022/06/25 17:00:09;;;;;;;;;;;;;;;;;;6265943;28;20045;-47
2022/06/25 17:03:09;;;;;;;8.88;5.20;;;;;;;;;;6263727;28;19928;-54
2022/06/25 17:06:10;;;;;;;;;;;;;;;;;;6267046;28;20055;-52
2022/06/25 17:09:11;;;;;;;9.60;4.78;;;;;;;;;;6268155;28;21167;-53
2022/06/25 17:12:12;;;;;;;6.47;4.68;;;;;;;;;;6263881;28;20123;-54
2022/06/25 17:15:12;;;;;;;6.45;5.07;;;;;;;;;;6268077;28;20087;-52
2022/06/25 17:18:13;;;;;;;;;;;;;;;;;;6266815;28;20055;-48
2022/06/25 17:21:14;;;;;;;7.20;6.00;;;;;;;;;;6266354;28;19988;-48
2022/06/25 17:24:15;;;;;;;;;;;;;;;;;;6262842;28;20489;-51
2022/06/25 17:27:16;;;;;;;7.57;5.60;;;;;;;;;;6267256;28;19928;-49
2022/06/25 17:30:18;;;;;;;6.78;5.95;;;;;;;;;;6270392;28;20056;-48
2022/06/25 17:33:18;;;;;;;9.85;5.80;;;;;;;;;;6262912;28;21082;-48
2022/06/25 17:36:19;;;;;;;6.25;5.22;;;;;;;;;;6269752;28;20049;-49
2022/06/25 17:39:19;;;;;;;12.35;5.45;;;;;;;;;;6267572;28;20048;-53
2022/06/25 17:42:20;;;;;;;8.10;5.60;;;;;;;;;;6267557;28;20050;-51
2022/06/25 17:45:21;;;;;;;7.47;5.28;;;;;;;;;;6268777;28;20474;-48
2022/06/25 17:48:23;;;;;;;8.95;5.68;;;;;;;;;;6264335;28;20045;-50
2022/06/25 17:51:23;;;;;;;8.73;5.47;;;;;;;;;;6265442;28;20139;-50
2022/06/25 17:54:24;;;;;;;8.52;5.28;;;;;;;;;;6265579;28;20044;-53
2022/06/25 17:57:24;;;;;;;8.77;5.50;;;;;;;;;;6267778;28;20103;-48
2022/06/25 18:00:27;;;;;;;7.95;5.30;;;;;;;;;;6266977;28;20460;-51
2022/06/25 18:03:27;;;;;;;11.02;5.88;;;;;;;;;;6264662;28;20518;-50
2022/06/25 18:06:28;;;;;;;11.63;6.87;;;;;;;;;;6268774;28;20381;-53
2022/06/25 18:09:29;;;;;;;11.68;10.40;;;;;;;;;;6270475;28;20033;-52
2022/06/25 18:12:29;;;;;;;10.60;8.10;;;;;;;;;;6262666;28;20975;-49
2022/06/25 18:15:30;;;;;;;11.63;7.07;;;;;;;;;;6267091;28;20044;-53
2022/06/25 18:18:30;;;;;;;8.47;5.73;;;;;;;;;;6266252;28;20925;-50
2022/06/25 18:21:31;;;;;;;9.82;6.13;;;;;;;;;;6268252;28;20044;-56
2022/06/25 18:24:32;;;;;;;7.50;5.85;;;;;;;;;;6263085;28;20053;-53